Time;durP1;ratioP1;P1;durP2;ratioP2;P2;SDS_P1;SDS_P2;PMS_P1;PMS_P2;Temp;Humidity;BMP_temperature;BMP_pressure;BME280_temperature;BME280_humidity;BME280_pressure;Samples;Min_cycle;Max_cycle;Signal;HPM_P1;HPM_P2
2024/03/29 01:45:06;;;;;;;1.17;0.90;;;8.70;99.90;;;;;;6126998;23;20643;-59
2024/03/29 01:47:33;;;;;;;1.60;1.10;;;8.70;99.90;;;;;;6129336;23;20788;-58
2024/03/29 01:50:01;;;;;;;2.57;1.70;;;8.60;99.90;;;;;;6129517;23;20898;-60
2024/03/29 01:52:29;;;;;;;4.33;2.10;;;8.60;99.90;;;;;;6129627;23;20407;-57
2024/03/29 01:54:57;;;;;;;2.93;2.27;;;8.60;99.90;;;;;;6129650;23;20427;-65
2024/03/29 01:57:24;;;;;;;3.70;1.77;;;8.60;99.90;;;;;;6129593;23;20446;-58
2024/03/29 01:59:52;;;;;;;2.50;1.67;;;8.60;99.90;;;;;;6129312;23;20419;-58
2024/03/29 02:02:19;;;;;;;4.00;1.30;;;8.60;99.90;;;;;;6130890;23;20415;-57
2024/03/29 02:04:46;;;;;;;3.63;2.17;;;8.60;99.90;;;;;;6129579;23;20522;-59
2024/03/29 02:07:15;;;;;;;2.10;1.23;;;8.60;99.90;;;;;;6129609;23;20411;-58
2024/03/29 02:09:42;;;;;;;2.30;1.20;;;8.60;99.90;;;;;;6130033;23;20705;-59
2024/03/29 02:12:09;;;;;;;5.13;1.10;;;8.60;99.90;;;;;;6128918;23;20466;-56
2024/03/29 02:14:36;;;;;;;2.23;1.20;;;8.50;99.90;;;;;;6128334;23;20442;-58
2024/03/29 02:17:03;;;;;;;2.33;1.40;;;8.50;99.90;;;;;;6128431;23;20434;-60
2024/03/29 02:19:30;;;;;;;2.63;1.50;;;8.60;99.90;;;;;;6128301;23;20767;-58
2024/03/29 02:22:01;;;;;;;2.80;1.37;;;8.50;99.90;;;;;;6129417;23;20548;-59
2024/03/29 02:24:29;;;;;;;1.87;1.43;;;8.60;99.90;;;;;;6129095;23;20498;-59
2024/03/29 02:26:57;;;;;;;2.50;1.17;;;8.50;99.90;;;;;;6128691;23;20925;-59
2024/03/29 02:29:25;;;;;;;2.80;1.40;;;8.50;99.90;;;;;;6129148;23;20898;-58
2024/03/29 02:31:52;;;;;;;2.13;1.30;;;8.40;99.90;;;;;;6129460;23;20706;-59
2024/03/29 02:34:19;;;;;;;2.23;1.30;;;8.40;99.90;;;;;;6129299;23;20458;-57
2024/03/29 02:36:46;;;;;;;3.83;1.40;;;8.40;99.90;;;;;;6130152;23;20415;-60
2024/03/29 02:39:13;;;;;;;2.77;1.37;;;8.40;99.90;;;;;;6129207;23;20407;-59
2024/03/29 02:41:41;;;;;;;3.00;1.27;;;8.30;99.90;;;;;;6130965;23;20462;-60
2024/03/29 02:44:10;;;;;;;3.77;1.97;;;8.30;99.90;;;;;;6131997;23;20455;-58
2024/03/29 02:46:37;;;;;;;1.50;1.40;;;8.10;99.90;;;;;;6128847;23;20418;-57
2024/03/29 02:49:03;;;;;;;3.73;1.27;;;8.30;99.90;;;;;;6130480;23;20397;-56
2024/03/29 02:51:30;;;;;;;4.60;1.70;;;8.30;99.90;;;;;;6129022;23;20443;-60
2024/03/29 02:53:56;;;;;;;1.60;1.50;;;8.30;99.90;;;;;;6129015;23;20474;-57
2024/03/29 02:56:23;;;;;;;2.20;1.30;;;8.30;99.90;;;;;;6130293;23;20433;-59
2024/03/29 02:58:53;;;;;;;4.10;1.60;;;8.30;99.90;;;;;;6130191;23;20407;-58
2024/03/29 03:01:26;;;;;;;2.10;1.70;;;8.30;99.90;;;;;;6129404;23;20415;-57
2024/03/29 03:03:52;;;;;;;3.17;1.33;;;8.30;99.90;;;;;;6128286;23;20492;-58
2024/03/29 03:06:19;;;;;;;2.10;1.30;;;8.30;99.90;;;;;;6128441;23;20780;-58
2024/03/29 03:11:38;;;;;;;2.90;1.33;;;8.20;99.90;;;;;;6047551;23;20473;-56
2024/03/29 03:14:06;;;;;;;2.60;1.27;;;8.20;99.90;;;;;;6128645;23;20423;-59
2024/03/29 03:16:33;;;;;;;2.50;1.57;;;8.10;99.90;;;;;;6131693;23;20524;-58
2024/03/29 03:18:59;;;;;;;2.17;1.00;;;8.10;99.90;;;;;;6131577;23;20399;-60
2024/03/29 03:21:26;;;;;;;2.77;1.57;;;8.10;99.90;;;;;;6131601;23;20407;-56
2024/03/29 03:23:55;;;;;;;1.67;1.30;;;8.10;99.90;;;;;;6131330;23;20457;-58
2024/03/29 03:26:22;;;;;;;1.70;1.20;;;8.10;99.90;;;;;;6131574;23;20959;-57
2024/03/29 03:28:48;;;;;;;2.63;2.03;;;8.10;99.90;;;;;;6131611;23;20463;-60
2024/03/29 03:31:16;;;;;;;2.37;1.53;;;8.00;99.90;;;;;;6131252;23;20711;-60
2024/03/29 03:33:42;;;;;;;3.10;1.20;;;8.00;99.90;;;;;;6130697;23;20457;-59
2024/03/29 03:36:09;;;;;;;2.23;1.50;;;7.90;99.90;;;;;;6132039;23;20739;-61
2024/03/29 03:38:36;;;;;;;9.23;1.40;;;7.90;99.90;;;;;;6132164;23;20769;-63
2024/03/29 03:41:03;;;;;;;3.07;1.90;;;7.90;99.90;;;;;;6131000;23;20411;-57
2024/03/29 03:43:29;;;;;;;3.47;1.30;;;7.90;99.90;;;;;;6130315;23;20434;-60
2024/03/29 03:46:02;;;;;;;1.90;1.20;;;7.90;99.90;;;;;;6130392;23;20438;-59
2024/03/29 03:48:29;;;;;;;6.80;1.53;;;7.90;99.90;;;;;;6131336;23;20398;-59
2024/03/29 03:50:56;;;;;;;4.40;1.40;;;7.80;99.90;;;;;;6130913;23;20493;-60
2024/03/29 03:53:22;;;;;;;1.67;1.50;;;7.70;99.90;;;;;;6129828;23;20399;-60
2024/03/29 03:55:49;;;;;;;2.50;1.63;;;7.70;99.90;;;;;;6130036;23;20403;-60
2024/03/29 03:58:15;;;;;;;2.37;1.53;;;7.70;99.90;;;;;;6131640;23;20186;-58
2024/03/29 04:00:44;;;;;;;2.30;1.33;;;7.70;99.90;;;;;;6130698;23;20462;-60
2024/03/29 04:03:10;;;;;;;2.43;1.40;;;7.70;99.90;;;;;;6130179;23;20418;-59
2024/03/29 04:05:40;;;;;;;2.70;1.20;;;7.70;99.90;;;;;;6130170;23;20443;-59
2024/03/29 04:08:06;;;;;;;2.23;1.40;;;7.60;99.90;;;;;;6129759;23;20415;-58
2024/03/29 04:10:33;;;;;;;1.70;1.23;;;7.70;99.90;;;;;;6129884;23;20453;-57
2024/03/29 04:12:59;;;;;;;1.10;1.00;;;7.70;99.90;;;;;;6129911;23;20956;-59
2024/03/29 04:15:26;;;;;;;2.00;1.20;;;7.70;99.90;;;;;;6129443;23;20430;-60
2024/03/29 04:17:52;;;;;;;1.63;1.10;;;7.60;99.90;;;;;;6129696;23;20188;-59
2024/03/29 04:20:19;;;;;;;2.03;1.10;;;7.70;99.90;;;;;;6130358;23;20500;-61
2024/03/29 04:22:46;;;;;;;2.83;1.40;;;7.70;99.90;;;;;;6129766;23;20175;-57
2024/03/29 04:25:14;;;;;;;1.40;1.20;;;7.70;99.90;;;;;;6129088;23;20553;-59
2024/03/29 04:27:40;;;;;;;5.30;1.27;;;7.70;99.90;;;;;;6129145;23;20411;-57
2024/03/29 04:30:08;;;;;;;1.50;0.90;;;7.70;99.90;;;;;;6129927;23;20792;-60
2024/03/29 04:32:34;;;;;;;1.30;0.80;;;7.60;99.90;;;;;;6129804;23;20443;-58
2024/03/29 04:35:01;;;;;;;4.60;1.40;;;7.60;99.90;;;;;;6129502;23;20420;-58
2024/03/29 04:37:28;;;;;;;1.60;1.03;;;7.70;99.90;;;;;;6128731;23;20757;-60
2024/03/29 04:39:56;;;;;;;1.90;1.10;;;7.70;99.90;;;;;;6128835;23;20411;-59
2024/03/29 04:42:23;;;;;;;1.50;1.20;;;7.70;99.90;;;;;;6129284;23;20439;-60
2024/03/29 04:44:51;;;;;;;2.23;1.70;;;7.70;99.90;;;;;;6129108;23;20443;-60
2024/03/29 04:47:17;;;;;;;2.33;1.30;;;7.70;99.90;;;;;;6129572;23;20411;-56
2024/03/29 04:49:44;;;;;;;1.83;1.23;;;7.70;99.90;;;;;;6130294;23;20410;-59
2024/03/29 04:52:11;;;;;;;5.60;1.30;;;7.70;99.90;;;;;;6130326;23;20403;-60
2024/03/29 04:54:38;;;;;;;1.77;1.07;;;7.80;99.90;;;;;;6129620;23;20478;-60
2024/03/29 04:57:07;;;;;;;1.27;1.03;;;7.80;99.90;;;;;;6130510;23;20442;-57
2024/03/29 04:59:33;;;;;;;9.60;1.80;;;7.80;99.90;;;;;;6130184;23;20414;-60
2024/03/29 05:02:00;;;;;;;1.33;1.00;;;7.80;99.90;;;;;;6128490;23;20399;-60
2024/03/29 05:04:28;;;;;;;3.10;1.43;;;7.80;99.90;;;;;;6128595;23;20466;-60
2024/03/29 05:06:55;;;;;;;1.70;0.90;;;7.80;99.90;;;;;;6128691;23;20466;-59
2024/03/29 05:09:22;;;;;;;6.67;1.50;;;7.70;99.90;;;;;;6128784;23;20404;-60
2024/03/29 05:11:50;;;;;;;3.00;1.27;;;7.70;99.90;;;;;;6128100;23;20828;-59
2024/03/29 05:14:19;;;;;;;1.63;0.93;;;7.70;99.90;;;;;;6128297;23;20438;-58
2024/03/29 05:16:46;;;;;;;3.17;1.40;;;7.60;99.90;;;;;;6128718;23;20458;-59
2024/03/29 05:19:13;;;;;;;1.40;1.00;;;7.70;99.90;;;;;;6128909;23;20439;-58
2024/03/29 05:21:40;;;;;;;1.30;1.10;;;7.70;99.90;;;;;;6128632;23;20454;-59
2024/03/29 05:24:08;;;;;;;1.90;1.17;;;7.70;99.90;;;;;;6127839;23;20455;-60
2024/03/29 05:26:35;;;;;;;2.83;1.30;;;7.70;99.90;;;;;;6129457;23;20490;-59
2024/03/29 05:29:04;;;;;;;2.10;1.23;;;7.70;99.90;;;;;;6130607;23;20743;-58
2024/03/29 05:31:34;;;;;;;2.53;1.00;;;7.80;99.90;;;;;;6130104;23;20411;-59
2024/03/29 05:34:01;;;;;;;2.10;1.57;;;7.80;99.90;;;;;;6128958;23;20434;-59
2024/03/29 05:36:31;;;;;;;1.97;1.23;;;7.80;99.90;;;;;;6129802;23;20411;-59
2024/03/29 05:39:01;;;;;;;6.47;1.33;;;7.80;99.90;;;;;;6127548;23;20816;-59
2024/03/29 05:41:31;;;;;;;3.00;1.20;;;9.20;99.90;;;;;;6128312;23;20407;-59
2024/03/29 05:43:58;;;;;;;1.50;0.93;;;7.80;99.90;;;;;;6128025;23;20427;-58
2024/03/29 05:46:25;;;;;;;2.50;1.20;;;7.90;99.90;;;;;;6127928;23;20521;-57
2024/03/29 05:48:54;;;;;;;3.93;1.10;;;8.00;99.90;;;;;;6128836;23;20407;-60
2024/03/29 05:51:20;;;;;;;1.60;1.00;;;8.10;99.90;;;;;;6128086;23;20410;-59
2024/03/29 05:53:47;;;;;;;2.70;1.60;;;8.10;99.90;;;;;;6127798;23;20461;-58
2024/03/29 05:56:14;;;;;;;3.03;1.00;;;8.20;99.90;;;;;;6127894;23;20399;-59
2024/03/29 05:58:41;;;;;;;2.50;1.30;;;8.20;99.90;;;;;;6127112;23;20403;-60
2024/03/29 06:01:10;;;;;;;1.40;1.13;;;8.20;99.90;;;;;;6127736;23;20411;-58
2024/03/29 06:03:37;;;;;;;3.90;2.10;;;8.20;99.90;;;;;;6127312;23;20475;-60
2024/03/29 06:06:07;;;;;;;1.80;1.60;;;8.20;99.90;;;;;;6127451;23;20494;-59
2024/03/29 06:08:33;;;;;;;2.87;2.20;;;8.20;99.90;;;;;;6127611;23;20498;-57
2024/03/29 06:11:01;;;;;;;2.60;1.90;;;8.20;99.90;;;;;;6127922;23;20407;-59
2024/03/29 06:17:22;;;;;;;3.33;1.87;;;8.30;99.90;;;;;;6127426;23;20411;-59
2024/03/29 06:19:11;;;;;;;2.37;1.40;;;8.30;99.90;;;;;;6128255;23;20409;-58
2024/03/29 06:21:39;;;;;;;2.00;1.10;;;8.40;99.90;;;;;;6127705;23;20407;-55
2024/03/29 06:24:07;;;;;;;1.37;0.80;;;8.30;99.90;;;;;;6128043;23;20603;-58
2024/03/29 06:26:34;;;;;;;1.60;1.20;;;8.40;99.90;;;;;;6128916;23;20494;-58
2024/03/29 06:29:01;;;;;;;2.43;1.37;;;8.50;99.90;;;;;;6128565;23;20467;-59
2024/03/29 06:31:28;;;;;;;2.37;1.10;;;8.50;99.90;;;;;;6128551;23;20566;-59
2024/03/29 06:33:55;;;;;;;2.33;1.60;;;8.60;99.90;;;;;;6128443;23;20431;-58
2024/03/29 06:36:22;;;;;;;1.90;1.13;;;8.70;99.90;;;;;;6128556;23;20431;-59
2024/03/29 06:38:51;;;;;;;1.87;1.37;;;8.70;99.90;;;;;;6129191;23;20399;-56
2024/03/29 06:41:18;;;;;;;1.63;0.97;;;8.90;99.90;;;;;;6127145;23;20446;-60
2024/03/29 06:43:45;;;;;;;1.80;1.30;;;8.90;99.90;;;;;;6128625;23;20433;-62
2024/03/29 06:46:12;;;;;;;2.83;1.33;;;9.00;99.90;;;;;;6129139;23;20446;-59
2024/03/29 06:48:39;;;;;;;3.60;1.90;;;9.00;99.90;;;;;;6127537;23;20430;-57
2024/03/29 06:51:06;;;;;;;1.37;1.10;;;9.00;99.90;;;;;;6129072;23;20411;-59
2024/03/29 06:53:33;;;;;;;2.63;1.40;;;9.00;99.90;;;;;;6127516;23;21009;-58
2024/03/29 06:56:02;;;;;;;1.60;0.90;;;9.10;99.90;;;;;;6127985;23;20407;-59
2024/03/29 06:58:29;;;;;;;3.20;1.53;;;9.10;99.90;;;;;;6128073;23;20489;-60
2024/03/29 07:01:00;;;;;;;4.07;1.07;;;9.20;99.90;;;;;;6127689;23;20411;-59
2024/03/29 07:03:27;;;;;;;1.60;0.83;;;9.30;99.90;;;;;;6127081;23;21169;-58
2024/03/29 07:05:54;;;;;;;5.13;1.27;;;9.40;99.90;;;;;;6127008;23;20469;-58
2024/03/29 07:08:21;;;;;;;2.13;1.17;;;9.40;99.90;;;;;;6125607;23;20894;-58
2024/03/29 07:10:57;;;;;;;2.03;1.40;;;9.40;99.90;;;;;;6126619;23;20489;-59
2024/03/29 07:13:31;;;;;;;2.73;1.37;;;9.50;99.90;;;;;;6126790;23;20395;-61
2024/03/29 07:15:58;;;;;;;1.43;0.97;;;9.60;99.90;;;;;;6127433;23;20383;-60
2024/03/29 07:18:25;;;;;;;3.33;1.37;;;9.70;99.90;;;;;;6128125;23;20411;-58
2024/03/29 07:20:52;;;;;;;4.30;1.20;;;9.80;99.90;;;;;;6128002;23;20479;-58
2024/03/29 07:23:22;;;;;;;1.40;1.10;;;9.90;99.90;;;;;;6128100;23;20936;-59
2024/03/29 07:26:02;;;;;;;2.33;1.37;;;10.00;99.90;;;;;;6127407;23;20486;-58
2024/03/29 07:28:31;;;;;;;3.10;1.10;;;10.20;99.90;;;;;;6127199;23;20900;-58
2024/03/29 07:31:09;;;;;;;2.70;1.17;;;10.00;99.90;;;;;;6128123;23;20485;-59
2024/03/29 07:33:38;;;;;;;1.63;0.97;;;10.00;99.90;;;;;;6128995;23;20441;-57
2024/03/29 07:36:05;;;;;;;2.20;1.17;;;10.10;99.90;;;;;;6129041;23;20400;-59
2024/03/29 07:38:34;;;;;;;2.47;1.27;;;10.20;99.90;;;;;;6129076;23;20438;-59
2024/03/29 07:41:06;;;;;;;2.90;1.10;;;10.20;99.90;;;;;;6129651;23;20731;-61
2024/03/29 07:43:40;;;;;;;1.60;0.90;;;10.20;99.90;;;;;;6129885;23;20431;-60
2024/03/29 07:46:11;;;;;;;2.90;1.60;;;10.30;99.90;;;;;;6130527;23;20518;-60
2024/03/29 07:48:52;;;;;;;1.97;0.90;;;10.40;99.90;;;;;;6133037;23;20451;-60
2024/03/29 07:51:19;;;;;;;1.53;1.13;;;10.70;99.90;;;;;;6131195;23;20411;-60
2024/03/29 07:53:49;;;;;;;2.13;0.97;;;10.50;99.90;;;;;;6128565;23;20625;-59
2024/03/29 07:56:16;;;;;;;7.93;1.10;;;10.60;99.90;;;;;;6128594;23;20456;-60
2024/03/29 07:58:45;;;;;;;2.37;1.20;;;10.60;99.90;;;;;;6128686;23;20433;-60
2024/03/29 08:01:18;;;;;;;8.43;3.03;;;10.60;99.90;;;;;;6128324;23;20442;-58
2024/03/29 08:03:47;;;;;;;1.30;0.70;;;10.70;99.90;;;;;;6129873;23;20419;-59
2024/03/29 08:06:19;;;;;;;1.10;0.90;;;10.70;99.90;;;;;;6130330;23;20447;-59
2024/03/29 08:08:56;;;;;;;2.07;1.00;;;10.80;99.90;;;;;;6129086;23;20390;-60
2024/03/29 08:11:23;;;;;;;4.43;1.13;;;10.90;99.90;;;;;;6130341;23;20864;-59
2024/03/29 08:13:52;;;;;;;2.80;0.90;;;11.00;99.90;;;;;;6130338;23;20500;-58
2024/03/29 08:16:19;;;;;;;1.70;1.07;;;11.10;99.90;;;;;;6129319;23;20407;-56
2024/03/29 08:18:49;;;;;;;5.50;1.20;;;11.10;99.90;;;;;;6129792;23;20419;-59
2024/03/29 08:21:16;;;;;;;2.43;0.80;;;11.10;99.90;;;;;;6131619;23;20410;-60
2024/03/29 08:23:46;;;;;;;2.30;1.00;;;11.20;99.90;;;;;;6131404;23;20592;-60
2024/03/29 08:26:13;;;;;;;2.13;0.80;;;11.20;99.90;;;;;;6132749;23;20441;-61
2024/03/29 08:28:40;;;;;;;1.40;0.90;;;11.30;99.90;;;;;;6132369;23;20399;-60
2024/03/29 08:31:12;;;;;;;2.10;1.00;;;11.40;99.90;;;;;;6131539;23;20474;-58
2024/03/29 08:33:39;;;;;;;1.50;0.90;;;11.50;99.90;;;;;;6130984;23;20446;-57
2024/03/29 08:36:08;;;;;;;3.27;1.27;;;11.50;99.90;;;;;;6132007;23;20864;-59
2024/03/29 08:38:41;;;;;;;1.07;0.77;;;11.50;99.90;;;;;;6131349;23;20411;-58
2024/03/29 08:41:08;;;;;;;6.63;1.83;;;11.90;99.90;;;;;;6131419;23;20427;-59
2024/03/29 08:43:35;;;;;;;6.20;1.67;;;11.60;99.90;;;;;;6130507;23;20431;-58
2024/03/29 08:46:02;;;;;;;4.10;1.77;;;11.70;99.90;;;;;;6131209;23;20474;-60
2024/03/29 08:48:30;;;;;;;2.83;1.67;;;11.80;99.90;;;;;;6129790;23;20491;-58
2024/03/29 08:50:57;;;;;;;3.30;1.77;;;11.90;99.90;;;;;;6130793;23;20408;-62
2024/03/29 08:53:27;;;;;;;3.60;1.40;;;12.10;99.90;;;;;;6130205;23;20735;-56
2024/03/29 08:55:54;;;;;;;5.27;2.23;;;12.20;99.90;;;;;;6131094;23;20408;-60
2024/03/29 08:58:23;;;;;;;4.40;2.30;;;12.30;99.90;;;;;;6130775;23;20471;-60
2024/03/29 09:00:55;;;;;;;7.33;2.40;;;12.30;99.90;;;;;;6131725;23;20411;-58
2024/03/29 09:03:22;;;;;;;3.83;3.20;;;12.30;99.90;;;;;;6128103;23;20427;-58
2024/03/29 09:05:53;;;;;;;11.40;3.40;;;12.30;99.90;;;;;;6129738;23;20737;-58
2024/03/29 09:08:26;;;;;;;6.80;2.63;;;12.30;99.90;;;;;;6130123;23;20415;-60
2024/03/29 09:10:55;;;;;;;8.53;2.20;;;12.30;99.90;;;;;;6127622;23;20411;-59
2024/03/29 09:13:22;;;;;;;7.13;1.63;;;12.80;99.90;;;;;;6128391;23;20404;-58
2024/03/29 09:15:49;;;;;;;2.90;1.57;;;13.80;99.90;;;;;;6127759;23;20906;-59
2024/03/29 09:18:23;;;;;;;2.77;2.00;;;14.00;99.90;;;;;;6128400;23;20422;-56
2024/03/29 09:23:41;;;;;;;5.37;1.90;;;14.10;99.90;;;;;;6150935;23;20469;-58
2024/03/29 09:26:08;;;;;;;4.87;1.80;;;14.20;99.90;;;;;;6124515;23;20743;-62
2024/03/29 09:28:36;;;;;;;3.40;1.30;;;14.20;99.90;;;;;;6125486;23;20387;-60
2024/03/29 09:31:04;;;;;;;3.90;1.60;;;14.10;99.90;;;;;;6126114;23;20466;-60
2024/03/29 09:33:30;;;;;;;3.03;1.27;;;14.10;99.90;;;;;;6125341;23;20403;-55
2024/03/29 09:35:58;;;;;;;3.87;1.40;;;14.10;99.90;;;;;;6124828;23;20399;-57
2024/03/29 09:38:25;;;;;;;6.43;1.77;;;14.10;99.90;;;;;;6125939;23;20407;-60
2024/03/29 09:41:01;;;;;;;4.30;1.73;;;14.10;99.90;;;;;;6125514;23;20790;-59
2024/03/29 09:43:29;;;;;;;2.90;1.13;;;14.10;99.90;;;;;;6125499;23;20470;-57
2024/03/29 09:45:57;;;;;;;5.37;2.53;;;14.00;99.90;;;;;;6125503;23;20478;-61
2024/03/29 09:48:24;;;;;;;3.90;1.23;;;14.00;99.90;;;;;;6124732;23;20410;-62
2024/03/29 09:50:53;;;;;;;3.67;1.40;;;13.90;99.90;;;;;;6123450;23;20457;-61
2024/03/29 09:53:22;;;;;;;2.17;0.80;;;13.80;99.90;;;;;;6124724;23;20446;-63
2024/03/29 09:55:49;;;;;;;2.73;1.27;;;13.80;99.90;;;;;;6125235;23;20487;-65
2024/03/29 09:58:17;;;;;;;1.70;1.00;;;13.70;99.90;;;;;;6125685;23;20856;-60
2024/03/29 10:00:44;;;;;;;3.47;1.40;;;13.70;99.90;;;;;;6123914;23;20805;-61
2024/03/29 10:03:12;;;;;;;3.07;1.80;;;13.80;99.90;;;;;;6124557;23;20960;-61
2024/03/29 10:05:40;;;;;;;2.80;1.20;;;14.90;99.90;;;;;;6124608;23;20486;-62
2024/03/29 10:08:08;;;;;;;3.67;1.43;;;13.80;99.90;;;;;;6125112;23;20435;-60
2024/03/29 10:10:35;;;;;;;2.10;1.20;;;13.90;99.90;;;;;;6124930;23;20435;-62
2024/03/29 10:13:02;;;;;;;2.67;1.10;;;13.80;99.90;;;;;;6124650;23;20714;-61
2024/03/29 10:15:33;;;;;;;2.50;1.93;;;13.80;99.90;;;;;;6124239;23;20427;-59
2024/03/29 10:18:00;;;;;;;4.37;1.10;;;13.80;99.90;;;;;;6124523;23;20862;-61
2024/03/29 10:20:27;;;;;;;1.60;1.40;;;13.80;99.90;;;;;;6124585;23;20413;-61
2024/03/29 10:22:55;;;;;;;3.00;1.93;;;13.70;99.90;;;;;;6125216;23;20486;-63
2024/03/29 10:25:22;;;;;;;2.43;1.10;;;13.60;99.90;;;;;;6124112;23;20438;-61
2024/03/29 10:27:50;;;;;;;3.90;1.77;;;13.30;99.90;;;;;;6124509;23;20530;-62
2024/03/29 10:30:19;;;;;;;4.80;1.23;;;13.00;99.90;;;;;;6124636;23;20404;-61
2024/03/29 10:32:47;;;;;;;2.83;1.70;;;12.80;99.90;;;;;;6124220;23;20415;-63
2024/03/29 10:35:14;;;;;;;4.70;1.57;;;12.80;99.90;;;;;;6124682;23;20790;-62
2024/03/29 10:37:44;;;;;;;4.17;1.23;;;12.80;99.90;;;;;;6124923;23;20463;-59
2024/03/29 10:40:15;;;;;;;2.80;1.27;;;12.70;99.90;;;;;;6124671;23;20933;-59
2024/03/29 10:42:42;;;;;;;1.77;1.03;;;12.50;99.90;;;;;;6125199;23;20392;-62
2024/03/29 10:45:09;;;;;;;4.57;1.13;;;12.50;99.90;;;;;;6124013;23;20431;-62
2024/03/29 10:47:37;;;;;;;3.80;1.40;;;12.50;99.90;;;;;;6124828;23;20769;-60
2024/03/29 10:50:08;;;;;;;2.33;1.00;;;12.60;99.90;;;;;;6123398;23;20482;-60
2024/03/29 10:52:35;;;;;;;5.60;1.17;;;12.60;99.90;;;;;;6124487;23;20423;-62
2024/03/29 10:55:02;;;;;;;1.97;1.63;;;12.50;99.90;;;;;;6123451;23;20498;-62
2024/03/29 10:57:30;;;;;;;5.07;1.60;;;12.50;99.90;;;;;;6123362;23;20906;-58
2024/03/29 11:00:05;;;;;;;5.60;3.20;;;12.50;99.90;;;;;;6124308;23;20417;-61
2024/03/29 11:02:40;;;;;;;3.77;1.50;;;12.50;99.90;;;;;;6123490;23;20450;-62
2024/03/29 11:05:13;;;;;;;3.80;1.23;;;12.60;99.90;;;;;;6124567;23;20427;-62
2024/03/29 11:07:42;;;;;;;2.40;1.50;;;12.70;99.90;;;;;;6124289;23;20465;-63
2024/03/29 11:10:14;;;;;;;1.80;1.13;;;12.90;99.90;;;;;;6124784;23;20407;-62
2024/03/29 11:12:55;;;;;;;5.40;2.00;;;13.20;99.90;;;;;;6124593;23;20642;-62
2024/03/29 11:15:29;;;;;;;3.17;1.60;;;13.40;99.90;;;;;;6123663;23;20743;-62
2024/03/29 11:17:56;;;;;;;2.07;1.10;;;13.70;99.90;;;;;;6124368;23;20422;-62
2024/03/29 11:20:34;;;;;;;3.20;1.67;;;14.00;99.90;;;;;;6123416;23;20494;-61
2024/03/29 11:23:05;;;;;;;3.03;1.80;;;14.30;99.90;;;;;;6124347;23;20392;-62
2024/03/29 11:25:43;;;;;;;1.13;0.90;;;14.40;99.90;;;;;;6123016;23;20434;-60
2024/03/29 11:28:13;;;;;;;2.13;1.30;;;14.40;99.90;;;;;;6124176;23;20443;-61
2024/03/29 11:30:46;;;;;;;2.50;1.40;;;14.50;99.90;;;;;;6124484;23;20411;-60
2024/03/29 11:33:33;;;;;;;2.10;1.30;;;14.60;99.90;;;;;;6123867;23;20427;-61
2024/03/29 11:36:06;;;;;;;2.43;1.23;;;14.60;99.90;;;;;;6124855;23;20712;-61
2024/03/29 11:38:35;;;;;;;9.70;1.50;;;14.50;99.90;;;;;;6126108;23;20889;-58
2024/03/29 11:41:06;;;;;;;2.53;1.40;;;14.30;99.90;;;;;;6126173;23;20486;-61
2024/03/29 11:43:33;;;;;;;1.80;1.10;;;14.20;99.90;;;;;;6126019;23;20469;-62
2024/03/29 11:46:01;;;;;;;2.53;1.40;;;14.00;99.90;;;;;;6126363;23;20445;-63
2024/03/29 11:48:30;;;;;;;1.20;0.80;;;14.00;99.90;;;;;;6126535;23;20526;-63
2024/03/29 11:50:58;;;;;;;1.50;1.00;;;13.90;99.90;;;;;;6125814;23;20490;-63
2024/03/29 11:53:27;;;;;;;1.20;0.77;;;13.90;99.90;;;;;;6125531;23;20402;-63
2024/03/29 11:55:55;;;;;;;1.73;1.23;;;13.70;99.90;;;;;;6126374;23;20409;-61
2024/03/29 11:58:23;;;;;;;4.73;1.10;;;13.70;99.90;;;;;;6125911;23;20890;-62
2024/03/29 12:00:50;;;;;;;1.77;1.00;;;13.60;99.90;;;;;;6125957;23;20411;-58
2024/03/29 12:03:17;;;;;;;2.80;1.00;;;13.60;99.90;;;;;;6124767;23;20494;-58
2024/03/29 12:05:44;;;;;;;1.50;0.80;;;13.60;99.90;;;;;;6125829;23;20410;-61
2024/03/29 12:08:11;;;;;;;1.50;0.97;;;13.60;99.90;;;;;;6126211;23;20878;-62
2024/03/29 12:10:40;;;;;;;2.83;2.60;;;13.50;99.90;;;;;;6126454;23;20402;-62
2024/03/29 12:13:07;;;;;;;2.43;1.27;;;13.50;99.90;;;;;;6125919;23;20407;-60
2024/03/29 12:15:35;;;;;;;1.57;0.97;;;13.40;99.90;;;;;;6125977;23;20953;-62
2024/03/29 12:18:04;;;;;;;3.50;1.00;;;13.30;99.90;;;;;;6126225;23;20729;-61
2024/03/29 12:20:31;;;;;;;2.53;1.53;;;13.30;99.90;;;;;;6125905;23;20459;-62
2024/03/29 12:23:00;;;;;;;1.83;1.00;;;13.30;99.90;;;;;;6125977;23;20482;-63
2024/03/29 12:25:27;;;;;;;1.50;0.80;;;13.40;99.90;;;;;;6125122;23;20495;-63
2024/03/29 12:27:56;;;;;;;1.83;1.10;;;13.50;99.90;;;;;;6125553;23;20482;-62
2024/03/29 12:30:23;;;;;;;9.57;1.27;;;13.60;99.90;;;;;;6126295;23;20740;-58
2024/03/29 12:33:01;;;;;;;5.17;4.50;;;13.80;99.90;;;;;;6125972;23;20918;-63
2024/03/29 12:35:30;;;;;;;1.90;1.33;;;14.00;99.90;;;;;;6125728;23;20438;-63
2024/03/29 12:37:59;;;;;;;4.10;2.47;;;14.10;99.90;;;;;;6125848;23;20411;-62
2024/03/29 12:40:29;;;;;;;7.30;4.47;;;14.20;99.90;;;;;;6126132;23;20802;-62
2024/03/29 12:42:58;;;;;;;3.43;0.97;;;14.30;99.90;;;;;;6125668;23;20442;-63
2024/03/29 12:45:26;;;;;;;1.40;1.07;;;14.40;99.90;;;;;;6125405;23;20491;-62
2024/03/29 12:47:54;;;;;;;1.93;1.00;;;14.60;99.90;;;;;;6124147;23;20475;-61
2024/03/29 12:50:27;;;;;;;1.90;1.03;;;14.80;99.90;;;;;;6125155;23;20403;-61
2024/03/29 12:52:55;;;;;;;1.50;1.10;;;14.90;99.90;;;;;;6124998;23;20391;-62
2024/03/29 12:55:23;;;;;;;1.73;1.00;;;15.10;99.90;;;;;;6124672;23;20423;-61
2024/03/29 12:57:53;;;;;;;2.00;1.23;;;15.30;99.90;;;;;;6124254;23;20431;-59
2024/03/29 13:00:21;;;;;;;1.70;0.90;;;15.50;99.90;;;;;;6125251;23;20526;-62
2024/03/29 13:02:49;;;;;;;1.53;1.00;;;15.50;99.90;;;;;;6124917;23;20431;-56
2024/03/29 13:05:16;;;;;;;2.30;1.17;;;15.50;99.90;;;;;;6124602;23;21016;-59
2024/03/29 13:07:43;;;;;;;3.37;1.10;;;15.60;99.90;;;;;;6125719;23;20471;-61
2024/03/29 13:10:14;;;;;;;2.97;1.10;;;15.60;99.90;;;;;;6125470;23;20411;-62
2024/03/29 13:12:43;;;;;;;1.67;1.20;;;15.70;99.90;;;;;;6125091;23;20388;-63
2024/03/29 13:15:20;;;;;;;1.53;1.07;;;15.70;99.90;;;;;;6125314;23;20431;-62
2024/03/29 13:17:49;;;;;;;2.97;1.23;;;15.60;99.90;;;;;;6125702;23;20445;-61
2024/03/29 13:20:17;;;;;;;1.90;1.10;;;15.60;99.90;;;;;;6125593;23;20733;-63
2024/03/29 13:22:46;;;;;;;1.33;0.80;;;15.50;99.90;;;;;;6124951;23;20403;-62
2024/03/29 13:25:13;;;;;;;1.87;1.23;;;15.50;99.90;;;;;;6124862;23;20427;-62
2024/03/29 13:27:40;;;;;;;1.60;1.10;;;15.50;99.90;;;;;;6124362;23;20948;-62
2024/03/29 13:30:10;;;;;;;2.00;1.30;;;15.60;99.90;;;;;;6125123;23;20482;-60
2024/03/29 13:32:39;;;;;;;9.00;3.90;;;15.50;99.90;;;;;;6124940;23;20412;-61
2024/03/29 13:35:10;;;;;;;27.80;11.70;;;15.50;99.90;;;;;;6124577;23;20438;-61
2024/03/29 13:37:39;;;;;;;22.70;7.87;;;15.40;99.90;;;;;;6125389;23;20602;-62
2024/03/29 13:40:07;;;;;;;4.53;2.30;;;15.40;99.90;;;;;;6125305;23;20417;-62
2024/03/29 13:42:34;;;;;;;1.97;1.37;;;15.40;99.90;;;;;;6125054;23;20404;-62
2024/03/29 13:45:01;;;;;;;5.27;1.50;;;15.50;99.90;;;;;;6124696;23;20809;-62
2024/03/29 13:47:28;;;;;;;2.00;1.20;;;15.70;99.90;;;;;;6125182;23;20475;-61
2024/03/29 13:49:56;;;;;;;3.40;1.80;;;15.90;98.80;;;;;;6125498;23;20453;-62
2024/03/29 13:52:26;;;;;;;4.57;1.30;;;16.00;97.30;;;;;;6125417;23;20494;-62
2024/03/29 13:54:53;;;;;;;2.33;1.17;;;16.00;97.40;;;;;;6124271;23;20426;-61
2024/03/29 13:57:21;;;;;;;2.27;1.00;;;16.00;96.70;;;;;;6125040;23;20406;-61
2024/03/29 13:59:48;;;;;;;2.60;1.33;;;16.20;95.90;;;;;;6123509;23;20445;-61
2024/03/29 14:02:16;;;;;;;2.70;1.73;;;16.20;95.50;;;;;;6124328;23;20490;-62
2024/03/29 14:04:43;;;;;;;2.17;1.40;;;16.40;95.40;;;;;;6123088;23;20424;-62
2024/03/29 14:07:12;;;;;;;2.00;1.20;;;16.40;95.00;;;;;;6124584;23;20475;-60
2024/03/29 14:09:41;;;;;;;3.57;1.23;;;16.40;94.70;;;;;;6125292;23;20422;-62
2024/03/29 14:12:09;;;;;;;1.73;1.10;;;16.60;94.40;;;;;;6124762;23;20414;-62
2024/03/29 14:14:36;;;;;;;2.70;1.80;;;16.80;93.70;;;;;;6124942;23;20812;-61
2024/03/29 14:17:05;;;;;;;4.53;1.77;;;16.90;93.70;;;;;;6125478;23;20430;-61
2024/03/29 14:19:35;;;;;;;3.77;1.30;;;16.90;93.50;;;;;;6125240;23;20490;-62
2024/03/29 14:22:02;;;;;;;2.77;1.30;;;16.80;94.00;;;;;;6124708;23;20403;-62
2024/03/29 14:24:30;;;;;;;3.90;1.60;;;16.80;94.10;;;;;;6124403;23;20793;-61
2024/03/29 14:26:58;;;;;;;1.00;0.83;;;16.70;94.30;;;;;;6124879;23;20415;-61
2024/03/29 14:29:25;;;;;;;1.77;1.17;;;16.70;94.70;;;;;;6125066;23;20410;-59
2024/03/29 14:31:54;;;;;;;2.50;1.63;;;16.70;95.70;;;;;;6123706;23;20781;-60
2024/03/29 14:34:21;;;;;;;2.50;1.07;;;16.60;95.50;;;;;;6124358;23;20996;-58
2024/03/29 14:36:48;;;;;;;2.33;1.20;;;16.50;95.40;;;;;;6125299;23;20439;-61
2024/03/29 14:39:15;;;;;;;1.77;1.00;;;16.40;96.40;;;;;;6124939;23;20438;-62
2024/03/29 14:41:43;;;;;;;1.93;1.33;;;16.40;96.40;;;;;;6125013;23;20478;-56
2024/03/29 14:44:13;;;;;;;1.80;0.97;;;16.50;96.70;;;;;;6123766;23;20435;-57
2024/03/29 14:46:40;;;;;;;2.07;1.10;;;16.60;96.50;;;;;;6124508;23;20392;-61
2024/03/29 14:49:10;;;;;;;1.77;1.00;;;16.60;96.90;;;;;;6124028;23;20510;-62